Terminal Aerodrome Forecast
Issued by NWS Cleveland, OH

Home | Current Version | Previous Version | Graphics & Text | Print | Product List | Glossary On
Versions: 1 2 3 4 5 6 7 8 9 10 11 12 13 14 15 16 17 18
469
FTUS41 KCLE 231727
TAFCAK
TAF
KCAK 231727Z 2318/2418 27008KT P6SM SCT030 BKN050
      TEMPO 2318/2321 BKN025
     FM232100 28006KT P6SM VCTS SCT045CB BKN100
      TEMPO 2323/2403 3SM -TSRA BKN025CB
     FM240300 28005KT P6SM FEW020 BKN100
     FM240800 30008KT 5SM BR BKN008
     FM241500 30010KT P6SM SCT008 BKN025=

USA.gov is the U.S. government's official web portal to all federal, state and local government web resources and services.